sensor_id;sensor_type;location;lat;lon;timestamp;pressure;altitude;pressure_sealevel;temperature
31528;BMP280;10206;48.012;10.030;2023-07-02T00:02:01;94348.69;;;19.91
31528;BMP280;10206;48.012;10.030;2023-07-02T00:04:27;94354.94;;;20.13
31528;BMP280;10206;48.012;10.030;2023-07-02T00:06:54;94351.78;;;20.22
31528;BMP280;10206;48.012;10.030;2023-07-02T00:09:20;94347.53;;;19.98
31528;BMP280;10206;48.012;10.030;2023-07-02T00:11:46;94352.06;;;19.87
31528;BMP280;10206;48.012;10.030;2023-07-02T00:14:13;94348.66;;;20.10
31528;BMP280;10206;48.012;10.030;2023-07-02T00:16:45;94348.41;;;20.24
31528;BMP280;10206;48.012;10.030;2023-07-02T00:19:15;94347.19;;;20.31
31528;BMP280;10206;48.012;10.030;2023-07-02T00:21:42;94349.22;;;19.85
31528;BMP280;10206;48.012;10.030;2023-07-02T00:24:09;94357.53;;;20.28
31528;BMP280;10206;48.012;10.030;2023-07-02T00:26:38;94354.09;;;20.30
31528;BMP280;10206;48.012;10.030;2023-07-02T00:29:06;94355.47;;;20.29
31528;BMP280;10206;48.012;10.030;2023-07-02T00:31:34;94357.53;;;20.28
31528;BMP280;10206;48.012;10.030;2023-07-02T00:34:00;94353.72;;;20.39
31528;BMP280;10206;48.012;10.030;2023-07-02T00:36:30;94343.81;;;20.32
31528;BMP280;10206;48.012;10.030;2023-07-02T00:38:57;94345.41;;;20.39
31528;BMP280;10206;48.012;10.030;2023-07-02T00:41:23;94343.09;;;20.10
31528;BMP280;10206;48.012;10.030;2023-07-02T00:43:49;94342.25;;;20.27
31528;BMP280;10206;48.012;10.030;2023-07-02T00:46:19;94340.00;;;20.22
31528;BMP280;10206;48.012;10.030;2023-07-02T00:48:51;94349.66;;;20.21
31528;BMP280;10206;48.012;10.030;2023-07-02T00:51:27;94344.31;;;20.27
31528;BMP280;10206;48.012;10.030;2023-07-02T00:53:55;94349.09;;;20.24
31528;BMP280;10206;48.012;10.030;2023-07-02T00:56:23;94350.06;;;20.33
31528;BMP280;10206;48.012;10.030;2023-07-02T00:58:51;94349.66;;;20.42
31528;BMP280;10206;48.012;10.030;2023-07-02T01:01:20;94346.63;;;20.34
31528;BMP280;10206;48.012;10.030;2023-07-02T01:04:00;94345.28;;;20.35
31528;BMP280;10206;48.012;10.030;2023-07-02T01:06:34;94339.75;;;20.35
31528;BMP280;10206;48.012;10.030;2023-07-02T01:09:04;94338.59;;;20.21
31528;BMP280;10206;48.012;10.030;2023-07-02T01:14:02;94344.34;;;20.51
31528;BMP280;10206;48.012;10.030;2023-07-02T01:16:30;94342.47;;;20.57
31528;BMP280;10206;48.012;10.030;2023-07-02T01:18:58;94334.53;;;20.46
31528;BMP280;10206;48.012;10.030;2023-07-02T01:21:29;94343.22;;;20.36
31528;BMP280;10206;48.012;10.030;2023-07-02T01:23:56;94343.09;;;20.32
31528;BMP280;10206;48.012;10.030;2023-07-02T01:26:22;94350.16;;;20.37
31528;BMP280;10206;48.012;10.030;2023-07-02T01:28:48;94340.66;;;20.42
31528;BMP280;10206;48.012;10.030;2023-07-02T01:31:14;94326.38;;;20.52
31528;BMP280;10206;48.012;10.030;2023-07-02T01:33:40;94336.38;;;20.39
31528;BMP280;10206;48.012;10.030;2023-07-02T01:36:06;94333.25;;;20.51
31528;BMP280;10206;48.012;10.030;2023-07-02T01:38:32;94342.63;;;20.63
31528;BMP280;10206;48.012;10.030;2023-07-02T01:40:58;94332.00;;;20.32
31528;BMP280;10206;48.012;10.030;2023-07-02T01:43:25;94337.09;;;20.39
31528;BMP280;10206;48.012;10.030;2023-07-02T01:45:51;94343.13;;;20.34
31528;BMP280;10206;48.012;10.030;2023-07-02T01:48:17;94341.34;;;20.42
31528;BMP280;10206;48.012;10.030;2023-07-02T01:50:43;94343.69;;;20.28
31528;BMP280;10206;48.012;10.030;2023-07-02T01:53:09;94344.38;;;20.29
31528;BMP280;10206;48.012;10.030;2023-07-02T01:55:35;94343.25;;;20.14
31528;BMP280;10206;48.012;10.030;2023-07-02T01:58:01;94337.22;;;20.22
31528;BMP280;10206;48.012;10.030;2023-07-02T02:00:27;94350.81;;;20.14
31528;BMP280;10206;48.012;10.030;2023-07-02T02:02:53;94343.22;;;19.93
31528;BMP280;10206;48.012;10.030;2023-07-02T02:05:19;94350.28;;;19.76
31528;BMP280;10206;48.012;10.030;2023-07-02T02:07:45;94347.63;;;20.00
31528;BMP280;10206;48.012;10.030;2023-07-02T02:10:11;94342.19;;;19.82
31528;BMP280;10206;48.012;10.030;2023-07-02T02:12:37;94335.09;;;19.99
31528;BMP280;10206;48.012;10.030;2023-07-02T02:15:04;94335.16;;;20.22
31528;BMP280;10206;48.012;10.030;2023-07-02T02:17:32;94347.28;;;20.11
31528;BMP280;10206;48.012;10.030;2023-07-02T02:19:58;94351.13;;;20.02
31528;BMP280;10206;48.012;10.030;2023-07-02T02:22:24;94347.28;;;20.11
31528;BMP280;10206;48.012;10.030;2023-07-02T02:24:50;94350.75;;;20.12
31528;BMP280;10206;48.012;10.030;2023-07-02T02:27:16;94347.78;;;20.06
31528;BMP280;10206;48.012;10.030;2023-07-02T02:29:42;94345.94;;;19.91
31528;BMP280;10206;48.012;10.030;2023-07-02T02:32:08;94355.03;;;19.74
31528;BMP280;10206;48.012;10.030;2023-07-02T02:34:34;94352.09;;;19.89
31528;BMP280;10206;48.012;10.030;2023-07-02T02:37:00;94357.72;;;19.91
31528;BMP280;10206;48.012;10.030;2023-07-02T02:39:26;94360.41;;;19.89
31528;BMP280;10206;48.012;10.030;2023-07-02T02:41:52;94364.75;;;20.16
31528;BMP280;10206;48.012;10.030;2023-07-02T02:44:19;94360.16;;;20.24
31528;BMP280;10206;48.012;10.030;2023-07-02T02:46:45;94365.88;;;20.09
31528;BMP280;10206;48.012;10.030;2023-07-02T02:49:11;94370.75;;;19.89
31528;BMP280;10206;48.012;10.030;2023-07-02T02:51:37;94370.31;;;19.96
31528;BMP280;10206;48.012;10.030;2023-07-02T02:54:03;94364.16;;;19.98
31528;BMP280;10206;48.012;10.030;2023-07-02T02:56:29;94368.03;;;20.10
31528;BMP280;10206;48.012;10.030;2023-07-02T02:58:55;94366.09;;;20.15
31528;BMP280;10206;48.012;10.030;2023-07-02T03:01:21;94356.44;;;19.94
31528;BMP280;10206;48.012;10.030;2023-07-02T03:03:47;94359.22;;;19.75
31528;BMP280;10206;48.012;10.030;2023-07-02T03:06:14;94360.19;;;19.83
31528;BMP280;10206;48.012;10.030;2023-07-02T03:08:40;94367.22;;;19.86
31528;BMP280;10206;48.012;10.030;2023-07-02T03:11:07;94370.88;;;19.71
31528;BMP280;10206;48.012;10.030;2023-07-02T03:13:33;94372.56;;;19.80
31528;BMP280;10206;48.012;10.030;2023-07-02T03:15:59;94366.78;;;19.94
31528;BMP280;10206;48.012;10.030;2023-07-02T03:18:25;94369.38;;;20.09
31528;BMP280;10206;48.012;10.030;2023-07-02T03:20:51;94365.19;;;20.08
31528;BMP280;10206;48.012;10.030;2023-07-02T03:23:17;94371.28;;;20.05
31528;BMP280;10206;48.012;10.030;2023-07-02T03:25:43;94368.03;;;20.10
31528;BMP280;10206;48.012;10.030;2023-07-02T03:28:09;94376.41;;;20.12
31528;BMP280;10206;48.012;10.030;2023-07-02T03:30:35;94376.91;;;19.85
31528;BMP280;10206;48.012;10.030;2023-07-02T03:33:02;94373.38;;;20.04
31528;BMP280;10206;48.012;10.030;2023-07-02T03:35:28;94370.03;;;20.08
31528;BMP280;10206;48.012;10.030;2023-07-02T03:37:54;94374.88;;;20.07
31528;BMP280;10206;48.012;10.030;2023-07-02T03:40:20;94375.38;;;20.23
31528;BMP280;10206;48.012;10.030;2023-07-02T03:42:46;94385.38;;;20.11
31528;BMP280;10206;48.012;10.030;2023-07-02T03:45:12;94376.81;;;20.05
31528;BMP280;10206;48.012;10.030;2023-07-02T03:47:38;94375.56;;;20.08
31528;BMP280;10206;48.012;10.030;2023-07-02T03:50:05;94375.03;;;20.35
31528;BMP280;10206;48.012;10.030;2023-07-02T03:52:31;94374.31;;;20.34
31528;BMP280;10206;48.012;10.030;2023-07-02T03:54:57;94382.53;;;20.30
31528;BMP280;10206;48.012;10.030;2023-07-02T03:57:23;94387.03;;;20.20
31528;BMP280;10206;48.012;10.030;2023-07-02T03:59:49;94383.59;;;20.21
31528;BMP280;10206;48.012;10.030;2023-07-02T04:02:15;94386.38;;;20.21
31528;BMP280;10206;48.012;10.030;2023-07-02T04:04:41;94389.19;;;20.02
31528;BMP280;10206;48.012;10.030;2023-07-02T04:07:07;94394.56;;;20.17
31528;BMP280;10206;48.012;10.030;2023-07-02T04:09:33;94391.78;;;20.17
31528;BMP280;10206;48.012;10.030;2023-07-02T04:12:00;94397.63;;;20.06
31528;BMP280;10206;48.012;10.030;2023-07-02T04:14:27;94399.78;;;20.29
31528;BMP280;10206;48.012;10.030;2023-07-02T04:16:53;94407.47;;;20.30
31528;BMP280;10206;48.012;10.030;2023-07-02T04:19:19;94407.56;;;20.34
31528;BMP280;10206;48.012;10.030;2023-07-02T04:21:45;94406.31;;;20.37
31528;BMP280;10206;48.012;10.030;2023-07-02T04:24:12;94404.88;;;20.58
31528;BMP280;10206;48.012;10.030;2023-07-02T04:26:38;94406.47;;;20.43
31528;BMP280;10206;48.012;10.030;2023-07-02T04:29:11;94399.84;;;20.53
31528;BMP280;10206;48.012;10.030;2023-07-02T04:31:37;94401.78;;;20.48
31528;BMP280;10206;48.012;10.030;2023-07-02T04:34:04;94413.59;;;20.49
31528;BMP280;10206;48.012;10.030;2023-07-02T04:36:31;94413.50;;;20.47
31528;BMP280;10206;48.012;10.030;2023-07-02T04:38:58;94406.56;;;20.46
31528;BMP280;10206;48.012;10.030;2023-07-02T04:41:24;94415.41;;;20.40
31528;BMP280;10206;48.012;10.030;2023-07-02T04:43:50;94420.22;;;20.39
31528;BMP280;10206;48.012;10.030;2023-07-02T04:46:16;94412.97;;;20.74
31528;BMP280;10206;48.012;10.030;2023-07-02T04:48:43;94412.03;;;20.89
31528;BMP280;10206;48.012;10.030;2023-07-02T04:51:09;94408.50;;;20.63
31528;BMP280;10206;48.012;10.030;2023-07-02T04:53:36;94414.53;;;20.79
31528;BMP280;10206;48.012;10.030;2023-07-02T04:56:03;94411.38;;;20.67
31528;BMP280;10206;48.012;10.030;2023-07-02T04:58:29;94420.78;;;20.58
31528;BMP280;10206;48.012;10.030;2023-07-02T05:00:55;94420.72;;;20.56
31528;BMP280;10206;48.012;10.030;2023-07-02T05:03:21;94420.00;;;20.55
31528;BMP280;10206;48.012;10.030;2023-07-02T05:05:48;94420.44;;;20.69
31528;BMP280;10206;48.012;10.030;2023-07-02T05:08:14;94418.97;;;20.66
31528;BMP280;10206;48.012;10.030;2023-07-02T05:10:40;94424.81;;;20.53
31528;BMP280;10206;48.012;10.030;2023-07-02T05:13:06;94427.44;;;20.70
31528;BMP280;10206;48.012;10.030;2023-07-02T05:15:33;94423.75;;;20.64
31528;BMP280;10206;48.012;10.030;2023-07-02T05:17:59;94425.22;;;20.67
31528;BMP280;10206;48.012;10.030;2023-07-02T05:20:25;94425.94;;;20.67
31528;BMP280;10206;48.012;10.030;2023-07-02T05:22:51;94427.06;;;20.58
31528;BMP280;10206;48.012;10.030;2023-07-02T05:25:17;94427.69;;;20.57
31528;BMP280;10206;48.012;10.030;2023-07-02T05:27:43;94433.94;;;20.57
31528;BMP280;10206;48.012;10.030;2023-07-02T05:30:10;94431.19;;;20.79
31528;BMP280;10206;48.012;10.030;2023-07-02T05:32:36;94435.53;;;20.64
31528;BMP280;10206;48.012;10.030;2023-07-02T05:35:02;94445.66;;;20.77
31528;BMP280;10206;48.012;10.030;2023-07-02T05:37:29;94447.97;;;20.85
31528;BMP280;10206;48.012;10.030;2023-07-02T05:39:55;94451.88;;;20.54
31528;BMP280;10206;48.012;10.030;2023-07-02T05:42:21;94451.09;;;20.52
31528;BMP280;10206;48.012;10.030;2023-07-02T05:44:47;94450.75;;;20.00
31528;BMP280;10206;48.012;10.030;2023-07-02T05:47:13;94453.94;;;20.12
31528;BMP280;10206;48.012;10.030;2023-07-02T05:49:42;94457.81;;;20.03
31528;BMP280;10206;48.012;10.030;2023-07-02T05:52:08;94456.63;;;19.32
31528;BMP280;10206;48.012;10.030;2023-07-02T05:54:34;94467.16;;;19.55
31528;BMP280;10206;48.012;10.030;2023-07-02T05:57:00;94464.78;;;19.10
31528;BMP280;10206;48.012;10.030;2023-07-02T05:59:26;94471.34;;;18.84
31528;BMP280;10206;48.012;10.030;2023-07-02T06:01:53;94468.34;;;18.78
31528;BMP280;10206;48.012;10.030;2023-07-02T06:04:19;94480.38;;;19.02
31528;BMP280;10206;48.012;10.030;2023-07-02T06:06:45;94472.97;;;18.89
31528;BMP280;10206;48.012;10.030;2023-07-02T06:09:11;94479.03;;;18.85
31528;BMP280;10206;48.012;10.030;2023-07-02T06:11:37;94481.63;;;18.99
31528;BMP280;10206;48.012;10.030;2023-07-02T06:14:04;94479.88;;;19.25
31528;BMP280;10206;48.012;10.030;2023-07-02T06:16:30;94486.50;;;19.18
31528;BMP280;10206;48.012;10.030;2023-07-02T06:18:56;94484.75;;;19.44
31528;BMP280;10206;48.012;10.030;2023-07-02T06:21:22;94484.00;;;19.61
31528;BMP280;10206;48.012;10.030;2023-07-02T06:23:48;94489.72;;;19.48
31528;BMP280;10206;48.012;10.030;2023-07-02T06:26:14;94480.75;;;19.49
31528;BMP280;10206;48.012;10.030;2023-07-02T06:28:40;94504.94;;;19.66
31528;BMP280;10206;48.012;10.030;2023-07-02T06:31:06;94496.19;;;19.74
31528;BMP280;10206;48.012;10.030;2023-07-02T06:33:33;94504.84;;;19.84
31528;BMP280;10206;48.012;10.030;2023-07-02T06:35:59;94510.91;;;19.98
31528;BMP280;10206;48.012;10.030;2023-07-02T06:38:25;94508.25;;;20.21
31528;BMP280;10206;48.012;10.030;2023-07-02T06:40:51;94507.69;;;20.25
31528;BMP280;10206;48.012;10.030;2023-07-02T06:43:17;94506.31;;;20.46
31528;BMP280;10206;48.012;10.030;2023-07-02T06:45:43;94514.78;;;20.71
31528;BMP280;10206;48.012;10.030;2023-07-02T06:48:09;94509.47;;;20.79
31528;BMP280;10206;48.012;10.030;2023-07-02T06:50:35;94505.13;;;21.17
31528;BMP280;10206;48.012;10.030;2023-07-02T06:53:01;94507.09;;;21.36
31528;BMP280;10206;48.012;10.030;2023-07-02T06:55:28;94509.97;;;21.64
31528;BMP280;10206;48.012;10.030;2023-07-02T06:57:54;94515.72;;;21.70
31528;BMP280;10206;48.012;10.030;2023-07-02T07:00:20;94509.31;;;21.66
31528;BMP280;10206;48.012;10.030;2023-07-02T07:02:46;94507.06;;;21.60
31528;BMP280;10206;48.012;10.030;2023-07-02T07:05:12;94515.03;;;21.46
31528;BMP280;10206;48.012;10.030;2023-07-02T07:07:39;94513.94;;;21.10
31528;BMP280;10206;48.012;10.030;2023-07-02T07:10:05;94521.28;;;21.23
31528;BMP280;10206;48.012;10.030;2023-07-02T07:12:32;94526.00;;;21.42
31528;BMP280;10206;48.012;10.030;2023-07-02T07:14:59;94526.84;;;21.25
31528;BMP280;10206;48.012;10.030;2023-07-02T07:17:25;94527.44;;;21.21
31528;BMP280;10206;48.012;10.030;2023-07-02T07:19:51;94542.41;;;21.34
31528;BMP280;10206;48.012;10.030;2023-07-02T07:22:17;94522.47;;;21.18
31528;BMP280;10206;48.012;10.030;2023-07-02T07:24:43;94533.66;;;21.20
31528;BMP280;10206;48.012;10.030;2023-07-02T07:27:09;94529.09;;;21.30
31528;BMP280;10206;48.012;10.030;2023-07-02T07:29:35;94537.75;;;21.64
31528;BMP280;10206;48.012;10.030;2023-07-02T07:32:02;94534.16;;;21.85
31528;BMP280;10206;48.012;10.030;2023-07-02T07:34:28;94523.38;;;21.48
31528;BMP280;10206;48.012;10.030;2023-07-02T07:36:54;94536.50;;;21.69
31528;BMP280;10206;48.012;10.030;2023-07-02T07:39:20;94527.88;;;21.83
31528;BMP280;10206;48.012;10.030;2023-07-02T07:41:49;94525.50;;;21.99
31528;BMP280;10206;48.012;10.030;2023-07-02T07:44:15;94533.31;;;22.04
31528;BMP280;10206;48.012;10.030;2023-07-02T07:46:41;94535.63;;;22.14
31528;BMP280;10206;48.012;10.030;2023-07-02T07:49:07;94532.84;;;22.14
31528;BMP280;10206;48.012;10.030;2023-07-02T07:51:33;94531.75;;;21.97
31528;BMP280;10206;48.012;10.030;2023-07-02T07:54:02;94538.41;;;22.14
31528;BMP280;10206;48.012;10.030;2023-07-02T07:56:28;94537.56;;;22.60
31528;BMP280;10206;48.012;10.030;2023-07-02T07:58:54;94541.16;;;22.95
31528;BMP280;10206;48.012;10.030;2023-07-02T08:01:20;94537.25;;;23.37
31528;BMP280;10206;48.012;10.030;2023-07-02T08:03:46;94528.28;;;23.41
31528;BMP280;10206;48.012;10.030;2023-07-02T08:06:12;94531.22;;;23.47
31528;BMP280;10206;48.012;10.030;2023-07-02T08:08:38;94529.88;;;23.50
31528;BMP280;10206;48.012;10.030;2023-07-02T08:11:04;94533.84;;;23.39
31528;BMP280;10206;48.012;10.030;2023-07-02T08:13:31;94529.13;;;23.81
31528;BMP280;10206;48.012;10.030;2023-07-02T08:15:57;94528.69;;;23.27
31528;BMP280;10206;48.012;10.030;2023-07-02T08:18:23;94539.66;;;23.51
31528;BMP280;10206;48.012;10.030;2023-07-02T08:20:49;94540.94;;;23.14
31528;BMP280;10206;48.012;10.030;2023-07-02T08:23:15;94545.34;;;23.57
31528;BMP280;10206;48.012;10.030;2023-07-02T08:25:41;94536.16;;;23.50
31528;BMP280;10206;48.012;10.030;2023-07-02T08:28:07;94541.88;;;23.92
31528;BMP280;10206;48.012;10.030;2023-07-02T08:30:33;94547.88;;;24.14
31528;BMP280;10206;48.012;10.030;2023-07-02T08:32:59;94545.38;;;23.93
31528;BMP280;10206;48.012;10.030;2023-07-02T08:35:26;94545.78;;;24.13
31528;BMP280;10206;48.012;10.030;2023-07-02T08:37:52;94542.63;;;23.95
31528;BMP280;10206;48.012;10.030;2023-07-02T08:40:18;94537.09;;;24.34
31528;BMP280;10206;48.012;10.030;2023-07-02T08:42:47;94542.03;;;24.79
31528;BMP280;10206;48.012;10.030;2023-07-02T08:45:15;94542.69;;;24.78
31528;BMP280;10206;48.012;10.030;2023-07-02T08:47:45;94547.06;;;25.37
31528;BMP280;10206;48.012;10.030;2023-07-02T08:50:12;94547.34;;;25.57
31528;BMP280;10206;48.012;10.030;2023-07-02T08:52:39;94543.44;;;25.82
31528;BMP280;10206;48.012;10.030;2023-07-02T08:55:05;94546.84;;;25.23
31528;BMP280;10206;48.012;10.030;2023-07-02T08:57:32;94549.50;;;25.62
31528;BMP280;10206;48.012;10.030;2023-07-02T08:59:58;94556.59;;;25.71
31528;BMP280;10206;48.012;10.030;2023-07-02T09:02:34;94555.31;;;25.80
31528;BMP280;10206;48.012;10.030;2023-07-02T09:05:02;94547.72;;;24.85
31528;BMP280;10206;48.012;10.030;2023-07-02T09:07:28;94549.31;;;24.98
31528;BMP280;10206;48.012;10.030;2023-07-02T09:09:54;94560.78;;;25.70
31528;BMP280;10206;48.012;10.030;2023-07-02T09:12:28;94547.72;;;25.35
31528;BMP280;10206;48.012;10.030;2023-07-02T09:17:26;94552.06;;;25.44
31528;BMP280;10206;48.012;10.030;2023-07-02T09:19:52;94548.63;;;25.00
31528;BMP280;10206;48.012;10.030;2023-07-02T09:22:18;94551.34;;;24.94
31528;BMP280;10206;48.012;10.030;2023-07-02T09:24:55;94556.16;;;24.91
31528;BMP280;10206;48.012;10.030;2023-07-02T09:27:34;94557.38;;;24.39
31528;BMP280;10206;48.012;10.030;2023-07-02T09:30:06;94544.63;;;24.67
31528;BMP280;10206;48.012;10.030;2023-07-02T09:32:32;94548.28;;;25.24
31528;BMP280;10206;48.012;10.030;2023-07-02T09:34:59;94555.53;;;24.51
31528;BMP280;10206;48.012;10.030;2023-07-02T09:37:26;94555.56;;;24.53
31528;BMP280;10206;48.012;10.030;2023-07-02T09:39:53;94550.22;;;24.28
31528;BMP280;10206;48.012;10.030;2023-07-02T09:42:21;94549.06;;;24.80
31528;BMP280;10206;48.012;10.030;2023-07-02T09:44:48;94543.97;;;25.15
31528;BMP280;10206;48.012;10.030;2023-07-02T09:47:17;94560.81;;;25.23
31528;BMP280;10206;48.012;10.030;2023-07-02T09:49:54;94550.84;;;25.07
31528;BMP280;10206;48.012;10.030;2023-07-02T09:52:21;94548.06;;;25.09
31528;BMP280;10206;48.012;10.030;2023-07-02T09:54:47;94550.09;;;24.59
31528;BMP280;10206;48.012;10.030;2023-07-02T09:57:14;94557.09;;;24.23
31528;BMP280;10206;48.012;10.030;2023-07-02T09:59:40;94555.63;;;24.57
31528;BMP280;10206;48.012;10.030;2023-07-02T10:02:09;94554.38;;;25.10
31528;BMP280;10206;48.012;10.030;2023-07-02T10:04:46;94553.06;;;25.67
31528;BMP280;10206;48.012;10.030;2023-07-02T10:07:26;94548.84;;;25.66
31528;BMP280;10206;48.012;10.030;2023-07-02T10:09:52;94558.97;;;25.93
31528;BMP280;10206;48.012;10.030;2023-07-02T10:12:25;94562.09;;;26.23
31528;BMP280;10206;48.012;10.030;2023-07-02T10:14:54;94546.22;;;25.80
31528;BMP280;10206;48.012;10.030;2023-07-02T10:19:54;94552.81;;;26.82
31528;BMP280;10206;48.012;10.030;2023-07-02T10:22:21;94555.56;;;26.76
31528;BMP280;10206;48.012;10.030;2023-07-02T10:24:53;94550.00;;;26.82
31528;BMP280;10206;48.012;10.030;2023-07-02T10:27:21;94559.97;;;27.07
31528;BMP280;10206;48.012;10.030;2023-07-02T10:29:58;94548.91;;;27.31
31528;BMP280;10206;48.012;10.030;2023-07-02T10:32:28;94548.03;;;27.01
31528;BMP280;10206;48.012;10.030;2023-07-02T10:34:55;94544.50;;;26.94
31528;BMP280;10206;48.012;10.030;2023-07-02T10:37:22;94555.13;;;26.26
31528;BMP280;10206;48.012;10.030;2023-07-02T10:39:48;94553.47;;;26.79
31528;BMP280;10206;48.012;10.030;2023-07-02T10:42:14;94560.19;;;27.37
31528;BMP280;10206;48.012;10.030;2023-07-02T10:44:53;94564.16;;;27.04
31528;BMP280;10206;48.012;10.030;2023-07-02T10:47:20;94558.63;;;27.16
31528;BMP280;10206;48.012;10.030;2023-07-02T10:49:46;94555.13;;;27.14
31528;BMP280;10206;48.012;10.030;2023-07-02T10:52:12;94550.50;;;27.70
31528;BMP280;10206;48.012;10.030;2023-07-02T10:57:06;94553.00;;;27.08
31528;BMP280;10206;48.012;10.030;2023-07-02T10:59:33;94558.59;;;27.08
31528;BMP280;10206;48.012;10.030;2023-07-02T11:02:00;94550.22;;;26.26
31528;BMP280;10206;48.012;10.030;2023-07-02T11:04:32;94552.84;;;26.08
31528;BMP280;10206;48.012;10.030;2023-07-02T11:07:00;94560.47;;;26.06
31528;BMP280;10206;48.012;10.030;2023-07-02T11:09:26;94552.81;;;26.06
31528;BMP280;10206;48.012;10.030;2023-07-02T11:12:00;94552.69;;;25.96
31528;BMP280;10206;48.012;10.030;2023-07-02T11:14:33;94543.09;;;26.13
31528;BMP280;10206;48.012;10.030;2023-07-02T11:17:04;94552.63;;;25.90
31528;BMP280;10206;48.012;10.030;2023-07-02T11:19:32;94555.72;;;25.57
31528;BMP280;10206;48.012;10.030;2023-07-02T11:21:59;94550.81;;;25.05
31528;BMP280;10206;48.012;10.030;2023-07-02T11:24:37;94545.72;;;25.40
31528;BMP280;10206;48.012;10.030;2023-07-02T11:27:06;94547.59;;;25.79
31528;BMP280;10206;48.012;10.030;2023-07-02T11:29:35;94547.28;;;25.53
31528;BMP280;10206;48.012;10.030;2023-07-02T11:32:10;94549.09;;;25.86
31528;BMP280;10206;48.012;10.030;2023-07-02T11:34:37;94540.44;;;25.64
31528;BMP280;10206;48.012;10.030;2023-07-02T11:37:04;94545.84;;;25.48
31528;BMP280;10206;48.012;10.030;2023-07-02T11:39:31;94545.16;;;24.99
31528;BMP280;10206;48.012;10.030;2023-07-02T11:41:58;94545.31;;;25.11
31528;BMP280;10206;48.012;10.030;2023-07-02T11:44:24;94544.19;;;25.31
31528;BMP280;10206;48.012;10.030;2023-07-02T11:46:50;94549.22;;;25.38
31528;BMP280;10206;48.012;10.030;2023-07-02T11:49:16;94538.00;;;24.88
31528;BMP280;10206;48.012;10.030;2023-07-02T11:51:44;94548.16;;;25.13
31528;BMP280;10206;48.012;10.030;2023-07-02T11:54:14;94536.69;;;25.43
31528;BMP280;10206;48.012;10.030;2023-07-02T11:56:41;94533.56;;;25.75
31528;BMP280;10206;48.012;10.030;2023-07-02T11:59:08;94535.47;;;26.18
31528;BMP280;10206;48.012;10.030;2023-07-02T12:01:34;94541.19;;;26.30
31528;BMP280;10206;48.012;10.030;2023-07-02T12:04:01;94542.88;;;25.93
31528;BMP280;10206;48.012;10.030;2023-07-02T12:06:27;94537.00;;;25.69
31528;BMP280;10206;48.012;10.030;2023-07-02T12:08:53;94541.06;;;26.22
31528;BMP280;10206;48.012;10.030;2023-07-02T12:11:19;94538.28;;;26.20
31528;BMP280;10206;48.012;10.030;2023-07-02T12:13:45;94528.28;;;25.99
31528;BMP280;10206;48.012;10.030;2023-07-02T12:16:11;94532.72;;;26.26
31528;BMP280;10206;48.012;10.030;2023-07-02T12:18:37;94533.06;;;25.90
31528;BMP280;10206;48.012;10.030;2023-07-02T12:21:03;94538.00;;;25.94
31528;BMP280;10206;48.012;10.030;2023-07-02T12:23:29;94532.06;;;25.66
31528;BMP280;10206;48.012;10.030;2023-07-02T12:25:55;94532.81;;;25.15
31528;BMP280;10206;48.012;10.030;2023-07-02T12:28:22;94534.94;;;25.72
31528;BMP280;10206;48.012;10.030;2023-07-02T12:30:48;94534.25;;;25.71
31528;BMP280;10206;48.012;10.030;2023-07-02T12:33:14;94541.09;;;25.62
31528;BMP280;10206;48.012;10.030;2023-07-02T12:35:40;94540.56;;;25.74
31528;BMP280;10206;48.012;10.030;2023-07-02T12:38:06;94524.41;;;26.32
31528;BMP280;10206;48.012;10.030;2023-07-02T12:40:34;94519.22;;;26.86
31528;BMP280;10206;48.012;10.030;2023-07-02T12:43:00;94526.22;;;26.81
31528;BMP280;10206;48.012;10.030;2023-07-02T12:45:26;94519.88;;;26.79
31528;BMP280;10206;48.012;10.030;2023-07-02T12:47:53;94512.28;;;26.07
31528;BMP280;10206;48.012;10.030;2023-07-02T12:50:19;94518.94;;;26.46
31528;BMP280;10206;48.012;10.030;2023-07-02T12:52:45;94517.19;;;26.09
31528;BMP280;10206;48.012;10.030;2023-07-02T12:55:11;94518.97;;;26.50
31528;BMP280;10206;48.012;10.030;2023-07-02T12:57:37;94513.44;;;26.58
31528;BMP280;10206;48.012;10.030;2023-07-02T13:00:04;94513.72;;;27.02
31528;BMP280;10206;48.012;10.030;2023-07-02T13:02:34;94509.03;;;26.33
31528;BMP280;10206;48.012;10.030;2023-07-02T13:05:00;94520.44;;;26.61
31528;BMP280;10206;48.012;10.030;2023-07-02T13:07:27;94520.50;;;26.69
31528;BMP280;10206;48.012;10.030;2023-07-02T13:09:56;94520.47;;;25.89
31528;BMP280;10206;48.012;10.030;2023-07-02T13:12:22;94520.94;;;26.35
31528;BMP280;10206;48.012;10.030;2023-07-02T13:14:48;94517.28;;;26.17
31528;BMP280;10206;48.012;10.030;2023-07-02T13:17:14;94516.75;;;26.34
31528;BMP280;10206;48.012;10.030;2023-07-02T13:19:40;94520.84;;;26.23
31528;BMP280;10206;48.012;10.030;2023-07-02T13:22:06;94504.75;;;26.24
31528;BMP280;10206;48.012;10.030;2023-07-02T13:24:33;94511.78;;;26.29
31528;BMP280;10206;48.012;10.030;2023-07-02T13:27:03;94517.22;;;26.13
31528;BMP280;10206;48.012;10.030;2023-07-02T13:29:30;94518.00;;;27.13
31528;BMP280;10206;48.012;10.030;2023-07-02T13:31:57;94505.66;;;27.76
31528;BMP280;10206;48.012;10.030;2023-07-02T13:34:23;94515.41;;;27.53
31528;BMP280;10206;48.012;10.030;2023-07-02T13:36:49;94510.66;;;27.98
31528;BMP280;10206;48.012;10.030;2023-07-02T13:39:15;94503.34;;;27.19
31528;BMP280;10206;48.012;10.030;2023-07-02T13:41:41;94506.28;;;27.49
31528;BMP280;10206;48.012;10.030;2023-07-02T13:44:08;94512.47;;;27.31
31528;BMP280;10206;48.012;10.030;2023-07-02T13:46:34;94506.84;;;27.23
31528;BMP280;10206;48.012;10.030;2023-07-02T13:49:00;94506.81;;;27.19
31528;BMP280;10206;48.012;10.030;2023-07-02T13:51:26;94508.88;;;27.13
31528;BMP280;10206;48.012;10.030;2023-07-02T13:53:52;94500.38;;;26.93
31528;BMP280;10206;48.012;10.030;2023-07-02T13:56:18;94502.09;;;27.58
31528;BMP280;10206;48.012;10.030;2023-07-02T14:01:24;94501.06;;;26.91
31528;BMP280;10206;48.012;10.030;2023-07-02T14:03:50;94503.03;;;26.71
31528;BMP280;10206;48.012;10.030;2023-07-02T14:06:17;94494.16;;;27.06
31528;BMP280;10206;48.012;10.030;2023-07-02T14:08:43;94500.22;;;26.67